Time;durP1;ratioP1;P1;durP2;ratioP2;P2;SDS_P1;SDS_P2;PMS_P1;PMS_P2;Temp;Humidity;BMP_temperature;BMP_pressure;BME280_temperature;BME280_humidity;BME280_pressure;Samples;Min_cycle;Max_cycle;Signal;HPM_P1;HPM_P2
2022/06/01 00:01:18;;;;;;;0.50;0.40;;;;;;;25.35;47.89;99155.19;5063226;28;20090;-71
2022/06/01 00:03:44;;;;;;;0.40;0.40;;;;;;;25.30;47.87;99150.06;5052597;28;20048;-71
2022/06/01 00:06:11;;;;;;;0.77;0.50;;;;;;;25.31;47.93;99148.06;5069794;28;20412;-71
2022/06/01 00:08:38;;;;;;;0.60;0.40;;;;;;;25.31;47.64;99156.47;5069899;28;20045;-71
2022/06/01 00:11:04;;;;;;;0.70;0.50;;;;;;;25.29;47.79;99147.66;5069897;28;20052;-71
2022/06/01 00:13:30;;;;;;;0.68;0.43;;;;;;;25.31;47.75;99151.66;5069790;28;20111;-71
2022/06/01 00:15:56;;;;;;;0.50;0.40;;;;;;;25.31;48.15;99156.47;5069528;28;20064;-71
2022/06/01 00:18:22;;;;;;;0.88;0.55;;;;;;;25.30;48.05;99152.06;5069685;28;20409;-71
2022/06/01 00:20:49;;;;;;;0.40;0.40;;;;;;;25.29;47.96;99158.84;5069727;28;20507;-71
2022/06/01 00:23:15;;;;;;;0.40;0.40;;;;;;;25.28;47.66;99162.84;5069403;28;20040;-71
2022/06/01 00:25:41;;;;;;;0.43;0.35;;;;;;;25.26;47.88;99157.69;5069615;28;20048;-71
2022/06/01 00:28:07;;;;;;;0.30;0.30;;;;;;;25.24;47.65;99155.28;5069531;28;20063;-71
2022/06/01 00:30:33;;;;;;;0.40;0.40;;;;;;;25.25;48.01;99159.69;5069493;28;20148;-71
2022/06/01 00:32:58;;;;;;;0.60;0.40;;;;;;;25.25;47.79;99167.28;5068446;28;20471;-71
2022/06/01 00:35:24;;;;;;;0.70;0.50;;;;;;;25.25;47.87;99164.50;5068129;28;20479;-71
2022/06/01 00:37:50;;;;;;;0.35;0.35;;;;;;;25.24;47.98;99151.72;5055113;28;20044;-71
2022/06/01 00:40:19;;;;;;;0.65;0.45;;;;;;;25.23;47.91;99153.72;5055045;28;20463;-71
2022/06/01 00:42:47;;;;;;;2.67;0.50;;;;;;;25.23;47.85;99162.09;5069044;28;20190;-67
2022/06/01 00:45:16;;;;;;;0.30;0.30;;;;;;;25.21;47.84;99156.09;5069150;28;20051;-68
2022/06/01 00:47:41;;;;;;;0.70;0.55;;;;;;;25.21;47.91;99155.31;5069431;28;20084;-71
2022/06/01 00:50:12;;;;;;;0.40;0.40;;;;;;;25.19;47.88;99154.94;5069314;28;20490;-71
2022/06/01 00:52:45;;;;;;;0.47;0.47;;;;;;;25.19;47.85;99150.13;5065144;28;20036;-71
2022/06/01 00:55:19;;;;;;;0.40;0.38;;;;;;;25.19;47.80;99152.94;5069137;28;20040;-71
2022/06/01 00:57:50;;;;;;;0.60;0.52;;;;;;;25.19;47.78;99144.53;5066081;28;20105;-71
2022/06/01 01:00:23;;;;;;;0.30;0.30;;;;;;;25.14;47.79;99147.75;5068393;28;20044;-71
2022/06/01 01:02:50;;;;;;;0.30;0.30;;;;;;;25.17;47.77;99148.97;5068941;28;20550;-70
2022/06/01 01:05:16;;;;;;;0.50;0.40;;;;;;;25.18;47.50;99142.94;5053702;28;20072;-71
2022/06/01 01:07:43;;;;;;;0.50;0.50;;;;;;;25.18;47.87;99142.94;5063840;28;20051;-71
2022/06/01 01:10:11;;;;;;;0.45;0.40;;;;;;;25.17;47.82;99140.56;5060437;28;20102;-67
2022/06/01 01:12:56;;;;;;;0.47;0.40;;;;;;;25.13;47.58;99134.97;5055104;28;20047;-67
2022/06/01 01:15:24;;;;;;;0.52;0.50;;;;;;;25.15;47.54;99135.38;5068920;28;20516;-67
2022/06/01 01:17:50;;;;;;;0.50;0.40;;;;;;;25.13;47.75;99136.97;5066541;28;20051;-67
2022/06/01 01:20:16;;;;;;;0.60;0.40;;;;;;;25.12;47.66;99143.78;5068761;28;20044;-68
2022/06/01 01:22:57;;;;;;;0.40;0.40;;;;;;;25.10;47.79;99135.81;5068711;28;20055;-67
2022/06/01 01:25:28;;;;;;;0.55;0.40;;;;;;;25.11;47.85;99142.19;5050129;28;20455;-67
2022/06/01 01:27:58;;;;;;;0.73;0.50;;;;;;;25.12;47.40;99135.41;5065416;28;20420;-67
2022/06/01 01:30:38;;;;;;;0.60;0.50;;;;;;;25.10;47.51;99140.63;5058728;28;20094;-67
2022/06/01 01:33:03;;;;;;;0.40;0.40;;;;;;;25.10;47.72;99135.81;5068806;28;20048;-68
2022/06/01 01:35:29;;;;;;;0.65;0.50;;;;;;;25.09;47.62;99127.84;5068926;28;20043;-67
2022/06/01 01:37:55;;;;;;;0.70;0.50;;;;;;;25.10;47.40;99133.00;5068639;28;20048;-71
2022/06/01 01:40:25;;;;;;;0.50;0.40;;;;;;;25.09;47.61;99125.81;5068644;28;20523;-71
2022/06/01 01:42:53;;;;;;;0.57;0.50;;;;;;;25.11;47.57;99128.22;5069151;28;20131;-71
2022/06/01 01:45:28;;;;;;;0.85;0.55;;;;;;;25.08;47.33;99120.66;5072262;28;20048;-71
2022/06/01 01:47:53;;;;;;;0.50;0.47;;;;;;;25.08;47.35;99124.25;5071346;28;20123;-71
2022/06/01 01:50:24;;;;;;;0.45;0.45;;;;;;;25.06;47.38;99131.44;5072179;28;20132;-71
2022/06/01 01:52:50;;;;;;;0.40;0.40;;;;;;;25.04;47.48;99126.25;5056973;28;20048;-71
2022/06/01 01:55:39;;;;;;;0.80;0.45;;;;;;;25.02;47.53;99125.06;5060496;28;20406;-71
2022/06/01 01:58:14;;;;;;;0.35;0.28;;;;;;;25.07;47.41;99127.44;5057086;28;20036;-67
2022/06/01 02:00:47;;;;;;;0.55;0.43;;;;;;;25.06;47.33;99126.63;5071875;28;20056;-67
2022/06/01 02:03:29;;;;;;;0.73;0.57;;;;;;;25.05;47.23;99127.84;5058499;28;20408;-67
2022/06/01 02:06:09;;;;;;;0.60;0.50;;;;;;;25.06;47.32;99123.84;5071702;28;20509;-67
2022/06/01 02:08:58;;;;;;;0.50;0.50;;;;;;;25.03;47.42;99116.25;5071862;28;20185;-67
2022/06/01 02:14:17;;;;;;;0.40;0.40;;;;;;;25.03;47.26;99115.44;5071637;28;20090;-68
2022/06/01 02:16:49;;;;;;;0.60;0.50;;;;;;;25.02;47.33;99114.66;5071113;28;20044;-68
2022/06/01 02:19:24;;;;;;;0.55;0.50;;;;;;;25.02;47.56;99111.84;5065318;28;20083;-67
2022/06/01 02:21:54;;;;;;;0.40;0.40;;;;;;;25.02;47.57;99109.06;5064897;28;20139;-67
2022/06/01 02:24:21;;;;;;;0.70;0.50;;;;;;;25.02;47.41;99109.06;5071306;28;20519;-67
2022/06/01 02:26:49;;;;;;;0.32;0.32;;;;;;;25.01;47.61;99110.28;5071617;28;20048;-67
2022/06/01 02:29:19;;;;;;;0.70;0.40;;;;;;;24.99;47.36;99113.44;5053404;28;20111;-67
2022/06/01 02:31:47;;;;;;;0.50;0.40;;;;;;;25.01;47.31;99110.28;5060128;28;20051;-68
2022/06/01 02:34:13;;;;;;;0.40;0.40;;;;;;;25.01;47.32;99106.69;5064906;28;20461;-67
2022/06/01 02:36:43;;;;;;;0.50;0.40;;;;;;;24.99;47.66;99102.25;5061837;28;20055;-67
2022/06/01 02:39:12;;;;;;;0.60;0.50;;;;;;;25.02;47.52;99109.06;5070832;28;20113;-67
2022/06/01 02:44:23;;;;;;;0.52;0.43;;;;;;;25.03;47.71;99105.03;5070684;28;20051;-68
2022/06/01 02:46:48;;;;;;;0.60;0.50;;;;;;;25.01;47.80;99103.88;5071005;28;20508;-68
2022/06/01 02:49:17;;;;;;;0.50;0.32;;;;;;;25.03;47.65;99112.66;5071444;28;20223;-68
2022/06/01 02:51:46;;;;;;;0.80;0.60;;;;;;;25.02;47.78;99100.66;5071286;28;20044;-67
2022/06/01 02:54:13;;;;;;;0.52;0.40;;;;;;;25.02;47.82;99103.47;5062983;28;20378;-67
2022/06/01 02:56:38;;;;;;;0.47;0.40;;;;;;;25.02;47.49;99106.25;5049613;28;20045;-68
2022/06/01 02:59:05;;;;;;;0.52;0.40;;;;;;;25.04;47.42;99103.06;5069529;28;20037;-67
2022/06/01 03:01:31;;;;;;;0.70;0.50;;;;;;;25.02;47.83;99106.25;5066660;28;20528;-67
2022/06/01 03:03:57;;;;;;;0.85;0.50;;;;;;;25.04;47.70;99095.47;5069932;28;20097;-67
2022/06/01 03:06:23;;;;;;;0.45;0.45;;;;;;;25.02;47.66;99106.25;5061514;28;20079;-67
2022/06/01 03:08:48;;;;;;;0.63;0.40;;;;;;;25.01;47.69;99104.66;5070539;28;20067;-67
2022/06/01 03:11:14;;;;;;;0.40;0.40;;;;;;;25.03;47.42;99109.84;5052614;28;20442;-68
2022/06/01 03:13:39;;;;;;;0.73;0.50;;;;;;;25.02;47.58;99105.47;5070724;28;20056;-67
2022/06/01 03:16:06;;;;;;;0.80;0.50;;;;;;;25.02;47.74;99103.47;5069970;28;20037;-68
2022/06/01 03:18:31;;;;;;;0.52;0.47;;;;;;;25.03;47.59;99107.84;5070665;28;20048;-68
2022/06/01 03:20:58;;;;;;;0.70;0.60;;;;;;;25.04;47.20;99108.66;5038457;28;20052;-67
2022/06/01 03:23:25;;;;;;;0.55;0.40;;;;;;;25.04;47.43;99098.28;5068688;28;20063;-67
2022/06/01 03:25:50;;;;;;;0.47;0.43;;;;;;;25.03;47.54;99096.66;5057574;28;20040;-68
2022/06/01 03:28:17;;;;;;;0.40;0.40;;;;;;;25.06;47.24;99103.44;5070377;28;20043;-68
2022/06/01 03:30:43;;;;;;;0.43;0.40;;;;;;;25.04;47.45;99111.47;5051967;28;20408;-67
2022/06/01 03:33:10;;;;;;;0.98;0.47;;;;;;;25.04;47.42;99108.66;5064680;28;20041;-67
2022/06/01 03:35:40;;;;;;;0.50;0.45;;;;;;;25.01;47.35;99110.28;5070328;28;20052;-67
2022/06/01 03:38:06;;;;;;;0.55;0.40;;;;;;;25.00;47.28;99111.44;5055926;28;20059;-68
2022/06/01 03:40:34;;;;;;;0.40;0.40;;;;;;;25.01;47.54;99113.06;5070228;28;20037;-68
2022/06/01 03:43:01;;;;;;;0.43;0.40;;;;;;;25.02;47.62;99108.25;5071314;28;20045;-68
2022/06/01 03:48:14;;;;;;;0.50;0.50;;;;;;;25.00;47.60;99119.84;5074733;28;20052;-68
2022/06/01 03:50:40;;;;;;;0.40;0.40;;;;;;;24.98;47.69;99122.25;5074219;28;20082;-67
2022/06/01 03:53:06;;;;;;;0.40;0.40;;;;;;;25.02;47.77;99120.25;5070127;28;20086;-67
2022/06/01 03:55:32;;;;;;;0.45;0.45;;;;;;;25.01;47.60;99118.66;5070174;28;20044;-67
2022/06/01 03:57:58;;;;;;;0.40;0.30;;;;;;;24.99;47.45;99116.25;5069998;28;20473;-67
2022/06/01 04:00:25;;;;;;;0.38;0.38;;;;;;;25.00;47.54;99119.84;5070007;28;20041;-67
2022/06/01 04:02:51;;;;;;;0.47;0.40;;;;;;;25.01;47.65;99120.66;5070159;28;20056;-67
2022/06/01 04:05:18;;;;;;;0.60;0.43;;;;;;;25.02;47.77;99119.47;5069503;28;20037;-71
2022/06/01 04:07:43;;;;;;;0.40;0.40;;;;;;;24.99;47.69;99115.47;5068699;28;20048;-71
2022/06/01 04:10:09;;;;;;;0.30;0.30;;;;;;;25.01;47.81;99115.88;5069652;28;20063;-71
2022/06/01 04:12:36;;;;;;;0.40;0.40;;;;;;;25.01;47.93;99110.28;5069436;28;20432;-71
2022/06/01 04:15:02;;;;;;;0.77;0.57;;;;;;;24.99;48.12;99110.66;5067787;28;20047;-67
2022/06/01 04:17:27;;;;;;;0.50;0.40;;;;;;;25.01;47.73;99112.28;5055584;28;20036;-67
2022/06/01 04:19:53;;;;;;;0.45;0.40;;;;;;;24.98;47.96;99111.06;5069685;28;20102;-67
2022/06/01 04:22:19;;;;;;;0.40;0.40;;;;;;;24.99;47.78;99112.66;5069481;28;20143;-67
2022/06/01 04:24:45;;;;;;;0.45;0.40;;;;;;;24.98;47.93;99113.88;5068874;28;20040;-67
2022/06/01 04:27:11;;;;;;;0.40;0.40;;;;;;;24.99;47.86;99113.44;5069364;28;20109;-67
2022/06/01 04:29:37;;;;;;;0.70;0.50;;;;;;;24.99;48.02;99110.66;5069638;28;20055;-67
2022/06/01 04:32:06;;;;;;;0.50;0.40;;;;;;;24.99;48.01;99119.06;5049365;28;20048;-67
2022/06/01 04:34:32;;;;;;;0.50;0.45;;;;;;;24.99;48.05;99118.25;5068369;28;20525;-70
2022/06/01 04:36:58;;;;;;;0.50;0.50;;;;;;;24.98;47.96;99119.47;5068280;28;20564;-71
2022/06/01 04:39:24;;;;;;;0.50;0.50;;;;;;;24.99;48.25;99118.25;5055121;28;20048;-71
2022/06/01 04:41:50;;;;;;;0.47;0.45;;;;;;;24.98;48.00;99123.06;5069260;28;20135;-71
2022/06/01 04:44:15;;;;;;;0.57;0.50;;;;;;;24.98;47.93;99123.06;5068837;28;20174;-71
2022/06/01 04:46:41;;;;;;;0.68;0.50;;;;;;;24.98;48.08;99125.84;5069193;28;20044;-71
2022/06/01 04:49:07;;;;;;;0.55;0.55;;;;;;;24.98;47.92;99127.88;5068591;28;20154;-71
2022/06/01 04:51:36;;;;;;;0.90;0.60;;;;;;;24.98;47.94;99128.66;5059048;28;20131;-71
2022/06/01 04:54:02;;;;;;;0.77;0.60;;;;;;;24.99;48.04;99130.25;5049325;28;20406;-71
2022/06/01 04:56:28;;;;;;;0.90;0.70;;;;;;;25.02;47.91;99127.84;5054950;28;20044;-71
2022/06/01 04:58:53;;;;;;;0.68;0.50;;;;;;;25.01;48.12;99131.88;5065389;28;20068;-71
2022/06/01 05:01:19;;;;;;;0.60;0.60;;;;;;;25.05;48.01;99130.63;5058236;28;20044;-70
2022/06/01 05:03:44;;;;;;;0.60;0.52;;;;;;;25.05;47.79;99127.84;5068773;28;20032;-71
2022/06/01 05:06:10;;;;;;;0.70;0.50;;;;;;;25.05;48.07;99133.44;5066121;28;20538;-71
2022/06/01 05:08:35;;;;;;;1.15;0.70;;;;;;;25.04;48.05;99131.06;5068096;28;20393;-71
2022/06/01 05:11:01;;;;;;;1.60;1.00;;;;;;;25.05;47.95;99138.25;5049271;28;20516;-71
2022/06/01 05:13:26;;;;;;;1.00;0.70;;;;;;;25.03;48.13;99140.63;5061412;28;20040;-71
2022/06/01 05:15:54;;;;;;;1.05;0.68;;;;;;;25.05;48.15;99139.03;5068779;28;20048;-70
2022/06/01 05:18:21;;;;;;;1.08;0.60;;;;;;;25.02;48.02;99134.25;5059240;28;20065;-70
2022/06/01 05:20:47;;;;;;;1.10;0.63;;;;;;;25.02;47.94;99134.25;5069229;28;20041;-70
2022/06/01 05:23:13;;;;;;;0.80;0.60;;;;;;;25.01;48.24;99138.25;5063011;28;20043;-71
2022/06/01 05:25:39;;;;;;;0.68;0.60;;;;;;;25.01;48.01;99137.47;5064143;28;20040;-71
2022/06/01 05:28:05;;;;;;;1.00;0.70;;;;;;;24.98;47.91;99148.25;5051896;28;20045;-70
2022/06/01 05:30:31;;;;;;;0.82;0.50;;;;;;;24.97;48.23;99143.84;5065298;28;20055;-70
2022/06/01 05:32:56;;;;;;;0.90;0.60;;;;;;;24.95;48.30;99140.69;5072064;28;20037;-70
2022/06/01 05:35:22;;;;;;;0.95;0.63;;;;;;;24.98;48.70;99144.66;5072418;28;20450;-70
2022/06/01 05:37:47;;;;;;;93.35;5.45;;;;;;;25.14;47.86;99130.16;5071832;28;20044;-69
2022/06/01 05:40:13;;;;;;;112.47;6.63;;;;;;;25.17;47.85;99124.56;5072161;28;20517;-69
2022/06/01 05:42:38;;;;;;;80.45;5.22;;;;;;;25.12;48.12;99122.19;5071690;28;20045;-70
2022/06/01 05:45:04;;;;;;;74.00;5.28;;;;;;;25.08;48.23;99129.03;5063966;28;20045;-69
2022/06/01 05:47:30;;;;;;;75.15;5.03;;;;;;;25.04;48.33;99122.66;5065931;28;20398;-70
2022/06/01 05:49:55;;;;;;;60.10;3.60;;;;;;;25.03;48.42;99126.63;5051829;28;20037;-70
2022/06/01 05:52:20;;;;;;;58.78;3.97;;;;;;;25.01;48.33;99126.25;5063829;28;20044;-70
2022/06/01 05:54:46;;;;;;;49.55;3.50;;;;;;;25.00;48.66;99128.25;5067844;28;20040;-70
2022/06/01 05:57:12;;;;;;;42.22;4.20;;;;;;;24.97;48.37;99129.06;5051534;28;20049;-70
2022/06/01 05:59:38;;;;;;;44.80;3.15;;;;;;;24.97;48.56;99132.66;5053612;28;20045;-68
2022/06/01 06:02:03;;;;;;;37.42;3.67;;;;;;;24.98;49.13;99130.66;5071762;28;20105;-70
2022/06/01 06:04:29;;;;;;;31.80;3.03;;;;;;;24.93;49.73;99117.09;5071804;28;20492;-70
2022/06/01 06:06:54;;;;;;;36.28;2.88;;;;;;;24.88;50.13;99114.75;5066561;28;20091;-70
2022/06/01 06:09:24;;;;;;;31.23;2.75;;;;;;;24.87;50.50;99113.97;5071970;28;20123;-70
2022/06/01 06:11:51;;;;;;;20.40;2.03;;;;;;;24.87;50.56;99105.56;5071757;28;20496;-70
2022/06/01 06:14:17;;;;;;;22.25;2.30;;;;;;;24.88;50.71;99107.16;5071674;28;20036;-70
2022/06/01 06:16:43;;;;;;;18.55;2.00;;;;;;;24.91;50.68;99111.13;5059947;28;20051;-70
2022/06/01 06:19:09;;;;;;;15.73;2.10;;;;;;;24.95;50.66;99114.69;5068436;28;20055;-70
2022/06/01 06:21:35;;;;;;;13.88;2.05;;;;;;;24.96;50.56;99110.69;5071481;28;20049;-70
2022/06/01 06:24:10;;;;;;;11.02;1.70;;;;;;;25.01;50.45;99120.66;5071187;28;20071;-70
2022/06/01 06:26:37;;;;;;;18.08;2.00;;;;;;;25.03;50.31;99121.84;5071182;28;20075;-70
2022/06/01 06:29:04;;;;;;;9.82;1.48;;;;;;;25.06;50.05;99135.03;5070227;28;20141;-70
2022/06/01 06:31:30;;;;;;;9.90;1.50;;;;;;;25.05;50.13;99138.25;5070563;28;20040;-70
2022/06/01 06:33:56;;;;;;;6.25;1.50;;;;;;;25.09;49.85;99139.03;5064573;28;20055;-70
2022/06/01 06:36:22;;;;;;;9.32;1.70;;;;;;;25.10;49.63;99144.22;5071103;28;20496;-70
2022/06/01 06:38:48;;;;;;;7.53;1.70;;;;;;;25.14;49.67;99141.38;5067004;28;20381;-69
2022/06/01 06:41:14;;;;;;;9.25;1.48;;;;;;;25.11;49.78;99137.41;5054609;28;20098;-74
2022/06/01 06:43:40;;;;;;;9.23;1.40;;;;;;;25.12;49.96;99138.19;5065856;28;20045;-65
2022/06/01 06:46:12;;;;;;;10.95;1.40;;;;;;;25.13;50.39;99142.56;5070183;28;20033;-65
2022/06/01 06:48:38;;;;;;;11.38;1.40;;;;;;;25.17;50.24;99149.75;5058030;28;20044;-66
2022/06/01 06:51:05;;;;;;;4.68;1.17;;;;;;;25.21;49.53;99136.50;5061086;28;20044;-66
2022/06/01 06:53:32;;;;;;;5.53;1.45;;;;;;;25.24;49.94;99141.31;5061569;28;20045;-72
2022/06/01 06:55:57;;;;;;;3.28;1.23;;;;;;;25.26;50.17;99138.09;5055258;28;20110;-75
2022/06/01 06:58:23;;;;;;;4.50;1.10;;;;;;;25.26;50.57;99146.47;5030715;28;20088;-65
2022/06/01 07:00:49;;;;;;;3.13;1.02;;;;;;;25.31;50.75;99142.47;5055566;28;20076;-65
2022/06/01 07:03:14;;;;;;;3.30;1.00;;;;;;;25.34;50.96;99152.81;5054510;28;20465;-73
2022/06/01 07:08:26;;;;;;;2.53;1.10;;;;;;;25.35;50.30;99140.41;5061002;28;20051;-66
2022/06/01 07:10:53;;;;;;;3.00;1.10;;;;;;;25.33;50.35;99132.44;5059802;28;20037;-68
2022/06/01 07:13:18;;;;;;;4.20;1.10;;;;;;;25.30;50.14;99122.06;5062614;28;20041;-67
2022/06/01 07:15:43;;;;;;;4.43;1.00;;;;;;;25.32;49.99;99130.03;5056205;28;20358;-67
2022/06/01 07:18:09;;;;;;;3.50;1.10;;;;;;;25.31;50.06;99134.06;5059442;28;20040;-67
2022/06/01 07:20:35;;;;;;;3.17;1.10;;;;;;;25.34;49.58;99138.81;5061958;28;20116;-67
2022/06/01 07:23:00;;;;;;;1.83;1.00;;;;;;;25.33;49.75;99129.63;5056276;28;20056;-68
2022/06/01 07:25:28;;;;;;;2.50;1.30;;;;;;;25.35;49.48;99137.59;5055976;28;20090;-68
2022/06/01 07:27:54;;;;;;;1.75;1.20;;;;;;;25.36;49.49;99142.81;5059844;28;20041;-67
2022/06/01 07:30:20;;;;;;;1.77;1.00;;;;;;;25.36;49.06;99142.00;5059990;28;20052;-67
2022/06/01 07:32:47;;;;;;;1.90;1.00;;;;;;;25.36;49.37;99158.78;5061628;28;20053;-66
2022/06/01 07:35:14;;;;;;;1.98;1.10;;;;;;;25.39;48.95;99152.38;5059843;28;20048;-67
2022/06/01 07:43:10;;;;;;;1.73;1.10;;;;;;;25.39;48.65;99138.38;5051787;28;20084;-68
2022/06/01 07:45:42;;;;;;;1.67;1.13;;;;;;;25.42;48.70;99149.53;5061497;28;20144;-68
2022/06/01 07:48:08;;;;;;;1.77;1.10;;;;;;;25.46;48.25;99155.13;5060175;28;20076;-68
2022/06/01 07:50:34;;;;;;;1.48;1.10;;;;;;;25.49;48.29;99157.09;5059767;28;20076;-68
2022/06/01 07:53:03;;;;;;;1.77;1.00;;;;;;;25.46;48.46;99152.34;5061745;28;20048;-69
2022/06/01 07:55:28;;;;;;;1.60;1.10;;;;;;;25.50;48.32;99153.91;5060284;28;20061;-68
2022/06/01 07:57:54;;;;;;;2.60;1.10;;;;;;;25.50;48.07;99158.69;5060669;28;20125;-69
2022/06/01 08:00:20;;;;;;;3.00;1.10;;;;;;;25.46;48.46;99155.13;5058305;28;20079;-69
2022/06/01 08:02:46;;;;;;;1.50;1.00;;;;;;;25.48;48.39;99161.09;5058348;28;20120;-68
2022/06/01 08:05:14;;;;;;;2.65;1.17;;;;;;;25.47;48.09;99159.53;5057407;28;20052;-68
2022/06/01 08:07:41;;;;;;;1.70;1.10;;;;;;;25.48;48.45;99161.09;5061187;28;20066;-69
2022/06/01 08:10:07;;;;;;;1.40;1.00;;;;;;;25.52;48.30;99156.28;5056437;28;20056;-73
2022/06/01 08:15:18;;;;;;;4.25;1.10;;;;;;;25.56;48.48;99157.03;5055048;28;20596;-71
2022/06/01 08:17:46;;;;;;;3.05;1.20;;;;;;;25.54;48.44;99156.66;5047013;28;20098;-70
2022/06/01 08:20:12;;;;;;;2.33;1.10;;;;;;;25.55;48.61;99157.44;5045721;28;20076;-70
2022/06/01 08:22:39;;;;;;;1.85;1.30;;;;;;;25.52;48.92;99161.88;5045897;28;20508;-70
2022/06/01 08:25:06;;;;;;;5.65;1.77;;;;;;;25.50;49.05;99164.28;5046685;28;20051;-66
2022/06/01 08:27:32;;;;;;;2.20;1.20;;;;;;;25.51;48.79;99165.91;5047833;28;20056;-70
2022/06/01 08:29:57;;;;;;;2.30;1.30;;;;;;;25.54;49.15;99159.47;5045401;28;20053;-69
2022/06/01 08:32:23;;;;;;;4.03;1.50;;;;;;;25.56;49.01;99164.63;5044662;28;20052;-68
2022/06/01 08:34:48;;;;;;;2.88;1.55;;;;;;;25.61;48.85;99170.59;5043941;28;20052;-66
2022/06/01 08:37:13;;;;;;;3.50;1.23;;;;;;;25.60;48.75;99179.41;5045975;28;20056;-66
2022/06/01 08:39:39;;;;;;;3.30;1.45;;;;;;;25.58;48.96;99179.03;5048910;28;20888;-69
2022/06/01 08:42:05;;;;;;;3.88;1.17;;;;;;;25.60;49.04;99190.63;5053084;28;20103;-69
2022/06/01 08:44:38;;;;;;;2.42;1.10;;;;;;;25.59;48.87;99184.22;5049950;28;20049;-69
2022/06/01 08:47:08;;;;;;;2.50;1.15;;;;;;;25.62;48.81;99189.00;5055835;28;20072;-64
2022/06/01 08:49:36;;;;;;;1.80;1.20;;;;;;;25.64;48.83;99185.78;5059179;28;20053;-65
2022/06/01 08:52:02;;;;;;;5.85;1.10;;;;;;;25.60;49.36;99191.41;5055126;28;20080;-65
2022/06/01 08:54:28;;;;;;;3.92;1.40;;;;;;;25.58;49.29;99193.84;5056456;28;20044;-65
2022/06/01 08:56:59;;;;;;;2.45;1.23;;;;;;;25.61;49.18;99195.81;5052376;28;20048;-66
2022/06/01 08:59:47;;;;;;;1.60;0.90;;;;;;;25.57;49.37;99197.81;5042187;28;20040;-65
2022/06/01 09:02:34;;;;;;;4.35;1.70;;;;;;;25.60;49.12;99210.22;5055207;28;20044;-65
2022/06/01 09:05:47;;;;;;;2.45;1.10;;;;;;;25.64;49.21;99208.97;5031964;28;20064;-64
2022/06/01 09:08:25;;;;;;;;;;;;;;;25.70;48.82;99210.13;5044918;28;20053;-64
2022/06/01 09:10:56;;;;;;;1.67;1.15;;;;;;;25.69;48.91;99208.53;5051527;28;19925;-64
2022/06/01 09:13:25;;;;;;;1.58;1.10;;;;;;;25.65;48.88;99205.00;5046346;28;20107;-65
2022/06/01 09:16:01;;;;;;;2.17;1.40;;;;;;;25.62;48.99;99203.00;5026810;28;20617;-64
2022/06/01 09:18:44;;;;;;;11.75;8.95;;;;;;;25.59;49.52;99205.84;5050617;28;20902;-64
2022/06/01 09:24:14;;;;;;;13.77;10.17;;;;;;;25.68;49.87;99192.94;5041028;28;20066;-67
2022/06/01 09:26:51;;;;;;;13.07;9.10;;;;;;;25.64;49.66;99185.78;5051589;28;20447;-64
2022/06/01 09:29:21;;;;;;;12.90;9.18;;;;;;;25.65;50.11;99188.19;5050330;28;20084;-66
2022/06/01 09:31:48;;;;;;;11.82;8.98;;;;;;;25.65;50.09;99193.78;5051495;28;20064;-65
2022/06/01 09:34:21;;;;;;;12.88;7.95;;;;;;;25.67;49.84;99185.75;5045981;28;20051;-65
2022/06/01 09:36:56;;;;;;;10.80;8.20;;;;;;;25.68;49.80;99181.75;5050384;28;20488;-65
2022/06/01 09:39:22;;;;;;;9.27;6.80;;;;;;;25.70;49.72;99181.31;5052607;28;20530;-65
2022/06/01 09:41:48;;;;;;;8.70;6.45;;;;;;;25.70;50.02;99173.72;5048765;28;20516;-65
2022/06/01 09:44:18;;;;;;;9.55;7.05;;;;;;;25.74;50.08;99173.72;5044492;28;20056;-64
2022/06/01 09:47:00;;;;;;;7.13;5.63;;;;;;;25.76;49.99;99177.69;5048775;28;20044;-65
2022/06/01 09:49:31;;;;;;;8.65;5.57;;;;;;;25.80;49.73;99174.88;5047587;28;21135;-64
2022/06/01 09:52:09;;;;;;;9.35;5.30;;;;;;;25.80;50.14;99172.06;5046666;28;20118;-64
2022/06/01 09:54:38;;;;;;;9.48;5.20;;;;;;;25.78;49.81;99186.47;5044476;28;20048;-63
2022/06/01 09:57:28;;;;;;;6.10;4.68;;;;;;;25.76;50.09;99182.50;5053192;28;20151;-69
2022/06/01 10:08:23;;;;;;;5.38;3.60;;;;;;;25.84;49.70;99177.63;5057733;28;20549;-70
2022/06/01 10:11:00;;;;;;;6.75;3.10;;;;;;;25.86;50.08;99180.78;5054656;28;20052;-70
2022/06/01 10:13:35;;;;;;;4.22;2.83;;;;;;;25.86;50.03;99183.59;5056751;28;20116;-70
2022/06/01 10:16:12;;;;;;;4.03;2.13;;;;;;;26.04;48.53;99184.22;5057374;28;20044;-66
2022/06/01 10:18:40;;;;;;;2.95;2.03;;;;;;;26.28;48.23;99183.16;5066449;28;20040;-66
2022/06/01 10:21:10;;;;;;;3.55;2.03;;;;;;;26.25;48.06;99174.78;5059601;28;20113;-65
2022/06/01 10:23:43;;;;;;;3.55;2.17;;;;;;;26.15;48.42;99187.72;5052427;28;20037;-65
2022/06/01 10:26:32;;;;;;;4.80;1.80;;;;;;;26.06;48.42;99182.59;5059619;28;20059;-66
2022/06/01 10:29:07;;;;;;;2.75;1.83;;;;;;;25.99;48.89;99181.88;5059300;28;20041;-63
2022/06/01 10:31:42;;;;;;;2.78;1.90;;;;;;;25.96;49.11;99179.91;5062269;28;20424;-65
2022/06/01 10:34:23;;;;;;;3.30;1.70;;;;;;;25.97;49.08;99184.31;5056066;28;20037;-65
2022/06/01 10:36:56;;;;;;;2.50;1.75;;;;;;;25.97;48.81;99187.09;5059264;28;20123;-65
2022/06/01 10:39:40;;;;;;;2.88;1.42;;;;;;;25.95;48.85;99184.72;5059256;28;20504;-65
2022/06/01 10:42:16;;;;;;;2.80;1.75;;;;;;;25.94;49.11;99171.94;5056405;28;20044;-64
2022/06/01 10:44:51;;;;;;;3.45;1.67;;;;;;;25.89;49.17;99172.38;5032936;28;20052;-64
2022/06/01 10:47:24;;;;;;;3.90;1.67;;;;;;;25.87;48.82;99160.00;5061512;28;20043;-64
2022/06/01 10:49:56;;;;;;;2.38;1.38;;;;;;;25.93;48.76;99169.53;5056748;28;20044;-65
2022/06/01 10:52:40;;;;;;;;;;;;;;;25.96;48.98;99166.69;5039653;28;20040;-66
2022/06/01 10:55:18;;;;;;;2.40;1.30;;;;;;;25.92;49.03;99176.34;5057736;28;19916;-65
2022/06/01 10:57:46;;;;;;;4.80;1.40;;;;;;;25.91;48.86;99175.53;5061545;28;20047;-64
2022/06/01 11:00:18;;;;;;;2.28;1.45;;;;;;;25.90;49.06;99170.38;5065446;28;20044;-64
2022/06/01 11:02:58;;;;;;;1.98;1.27;;;;;;;25.90;48.97;99167.56;5059913;28;20105;-64
2022/06/01 11:05:59;;;;;;;4.05;1.50;;;;;;;25.88;49.22;99161.59;5057052;28;20056;-64
2022/06/01 11:08:46;;;;;;;3.10;1.90;;;;;;;25.89;48.80;99163.97;5060933;28;20081;-65
2022/06/01 11:11:41;;;;;;;3.35;1.42;;;;;;;25.91;48.78;99167.13;5057757;28;20049;-65
2022/06/01 11:14:39;;;;;;;2.30;1.55;;;;;;;25.97;48.75;99167.50;5052905;28;20090;-65
2022/06/01 11:17:21;;;;;;;2.08;1.30;;;;;;;25.95;48.57;99167.13;5054446;28;20053;-65
2022/06/01 11:20:00;;;;;;;2.60;1.45;;;;;;;25.96;48.68;99163.91;5059216;28;20045;-65
2022/06/01 11:22:50;;;;;;;2.50;1.35;;;;;;;26.00;48.58;99159.06;5053236;28;20041;-65
2022/06/01 11:25:26;;;;;;;2.20;1.30;;;;;;;25.98;48.87;99164.25;5052755;28;20122;-66
2022/06/01 11:28:49;;;;;;;5.00;1.40;;;;;;;26.03;48.71;99161.03;5052978;28;20890;-64
2022/06/01 11:31:23;;;;;;;2.47;1.30;;;;;;;26.06;48.66;99168.56;4996307;28;20145;-65
2022/06/01 11:34:06;;;;;;;2.03;1.25;;;;;;;26.05;49.21;99166.19;4996594;28;20546;-64
2022/06/01 11:36:52;;;;;;;2.78;1.10;;;;;;;26.02;49.26;99167.03;4993643;28;20049;-65
2022/06/01 11:39:27;;;;;;;2.67;1.20;;;;;;;26.06;49.07;99167.78;4998785;28;20046;-65
2022/06/01 11:42:05;;;;;;;1.60;1.00;;;;;;;26.05;49.01;99169.78;4996695;28;20049;-65
2022/06/01 11:44:36;;;;;;;2.45;1.20;;;;;;;26.08;49.12;99168.19;5010483;28;20533;-65
2022/06/01 11:47:09;;;;;;;2.20;1.10;;;;;;;26.10;49.09;99167.75;5002630;28;20060;-65
2022/06/01 11:49:43;;;;;;;1.50;0.95;;;;;;;26.09;49.40;99166.19;5005786;28;20049;-63
2022/06/01 11:52:31;;;;;;;2.13;1.10;;;;;;;26.13;49.34;99173.31;5001954;28;20506;-64
2022/06/01 11:55:22;;;;;;;4.85;1.02;;;;;;;26.16;49.48;99169.69;5008315;28;20124;-65
2022/06/01 11:57:54;;;;;;;2.08;1.10;;;;;;;26.10;49.79;99162.94;4989472;28;20793;-65
2022/06/01 12:00:32;;;;;;;1.45;1.00;;;;;;;26.13;50.13;99162.09;5008916;28;20108;-65
2022/06/01 12:03:24;;;;;;;1.77;1.02;;;;;;;26.13;49.59;99161.31;5057004;28;20451;-66
2022/06/01 12:06:01;;;;;;;2.00;1.17;;;;;;;26.10;49.92;99145.34;5034952;28;20071;-66
2022/06/01 12:08:41;;;;;;;2.22;1.10;;;;;;;26.12;50.17;99152.09;5043007;28;20044;-68
2022/06/01 12:11:14;;;;;;;2.35;1.25;;;;;;;26.14;50.09;99144.06;5057166;28;20424;-72
2022/06/01 12:13:43;;;;;;;;;;;;;;;26.17;50.07;99146.06;5060736;28;20045;-66
2022/06/01 12:16:27;;;;;;;2.08;1.05;;;;;;;26.22;50.13;99139.16;5057662;28;19917;-66
2022/06/01 12:19:19;;;;;;;1.50;0.98;;;;;;;26.20;50.11;99134.00;5045851;28;20044;-67